createdAt,value
2017-12-21T00:00:15.391Z,37.63
2017-12-21T00:02:42.831Z,37.37
2017-12-21T00:05:10.318Z,33.07
2017-12-21T00:07:37.765Z,37.63
2017-12-21T00:10:05.227Z,34.10
2017-12-21T00:12:32.748Z,38.20
2017-12-21T00:15:00.196Z,34.50
2017-12-21T00:17:27.652Z,38.13
2017-12-21T00:19:55.120Z,35.07
2017-12-21T00:22:34.403Z,36.10
2017-12-21T00:25:01.859Z,38.43
2017-12-21T00:27:29.315Z,38.97
2017-12-21T00:29:56.816Z,40.43
2017-12-21T00:32:24.275Z,43.63
2017-12-21T00:34:51.727Z,38.87
2017-12-21T00:37:19.212Z,41.63
2017-12-21T00:39:46.674Z,36.20
2017-12-21T00:42:14.176Z,37.63
2017-12-21T00:44:41.697Z,42.37
2017-12-21T00:47:09.179Z,39.63
2017-12-21T00:49:36.680Z,43.73
2017-12-21T00:52:04.135Z,40.17
2017-12-21T00:54:31.587Z,37.43
2017-12-21T00:56:59.087Z,39.13
2017-12-21T00:59:26.551Z,35.67
2017-12-21T01:01:54.004Z,37.73
2017-12-21T01:04:21.512Z,39.03
2017-12-21T01:06:48.966Z,32.00
2017-12-21T01:09:16.428Z,35.50
2017-12-21T01:11:43.907Z,35.33
2017-12-21T01:14:11.396Z,35.13
2017-12-21T01:16:38.851Z,35.67
2017-12-21T01:19:06.304Z,41.73
2017-12-21T01:21:33.958Z,35.37
2017-12-21T01:24:01.427Z,32.77
2017-12-21T01:26:28.879Z,35.37
2017-12-21T01:28:56.433Z,35.00
2017-12-21T01:31:24.087Z,36.67
2017-12-21T01:33:51.536Z,35.60
2017-12-21T01:36:19.051Z,39.37
2017-12-21T01:38:46.504Z,38.10
2017-12-21T01:41:13.950Z,35.60
2017-12-21T01:43:41.440Z,38.13
2017-12-21T01:46:08.897Z,34.37
2017-12-21T01:48:36.410Z,30.67
2017-12-21T01:51:03.865Z,35.43
2017-12-21T01:53:31.325Z,39.97
2017-12-21T01:55:58.987Z,39.43
2017-12-21T01:58:26.468Z,34.97
2017-12-21T02:00:53.919Z,34.57
2017-12-21T02:03:21.388Z,32.97
2017-12-21T02:05:48.843Z,38.27
2017-12-21T02:08:16.307Z,33.30
2017-12-21T02:10:43.751Z,41.13
2017-12-21T02:13:11.432Z,30.90
2017-12-21T02:15:38.881Z,35.97
2017-12-21T02:18:06.322Z,31.40
2017-12-21T02:20:33.783Z,33.50
2017-12-21T02:23:01.233Z,35.30
2017-12-21T02:25:28.721Z,32.10
2017-12-21T02:27:56.177Z,35.70
2017-12-21T02:30:23.638Z,36.20
2017-12-21T02:32:51.107Z,33.83
2017-12-21T02:35:18.559Z,34.13
2017-12-21T02:37:46.046Z,33.30
2017-12-21T02:40:13.541Z,33.43
2017-12-21T02:42:40.988Z,29.80
2017-12-21T02:45:08.447Z,35.90
2017-12-21T02:47:35.978Z,29.13
2017-12-21T02:50:03.430Z,34.90
2017-12-21T02:52:30.887Z,33.77
2017-12-21T02:54:58.347Z,37.53
2017-12-21T02:57:25.802Z,35.30
2017-12-21T02:59:53.287Z,29.00
2017-12-21T03:02:20.743Z,32.73
2017-12-21T03:04:48.200Z,37.10
2017-12-21T03:07:15.674Z,33.60
2017-12-21T03:09:43.123Z,31.10
2017-12-21T03:12:10.784Z,31.80
2017-12-21T03:14:38.230Z,28.37
2017-12-21T03:17:05.684Z,33.00
2017-12-21T03:19:33.162Z,31.83
2017-12-21T03:22:00.619Z,28.80
2017-12-21T03:24:28.221Z,30.60
2017-12-21T03:26:55.710Z,30.83
2017-12-21T03:29:23.155Z,28.67
2017-12-21T03:31:50.635Z,31.57
2017-12-21T03:34:18.091Z,28.23
2017-12-21T03:36:45.570Z,30.40
2017-12-21T03:39:13.019Z,28.77
2017-12-21T03:41:40.512Z,24.13
2017-12-21T03:44:07.987Z,25.30
2017-12-21T03:46:35.476Z,28.93
2017-12-21T03:49:02.948Z,25.30
2017-12-21T03:51:30.403Z,24.43
2017-12-21T03:53:57.879Z,23.70
2017-12-21T03:56:25.346Z,25.17
2017-12-21T03:58:52.809Z,23.90
2017-12-21T04:01:20.272Z,24.53
2017-12-21T04:03:47.773Z,24.80
2017-12-21T04:06:15.225Z,20.53
2017-12-21T04:08:42.675Z,22.63
2017-12-21T04:11:10.206Z,20.57
2017-12-21T04:13:37.667Z,21.20
2017-12-21T04:16:05.122Z,23.60
2017-12-21T04:18:32.564Z,24.60
2017-12-21T04:21:00.040Z,23.57
2017-12-21T04:23:27.492Z,23.23
2017-12-21T04:25:55.007Z,23.97
2017-12-21T04:28:22.467Z,18.93
2017-12-21T04:30:49.931Z,24.37
2017-12-21T04:33:17.401Z,23.53
2017-12-21T04:35:44.865Z,22.60
2017-12-21T04:38:12.351Z,20.23
2017-12-21T04:40:39.812Z,20.90
2017-12-21T04:43:07.299Z,28.20
2017-12-21T04:45:34.763Z,24.10
2017-12-21T04:48:02.247Z,25.17
2017-12-21T04:50:29.723Z,25.87
2017-12-21T04:52:57.186Z,22.93
2017-12-21T04:55:24.679Z,27.73
2017-12-21T04:57:52.144Z,20.97
2017-12-21T05:00:19.633Z,21.33
2017-12-21T05:02:47.111Z,17.63
2017-12-21T05:05:14.588Z,22.60
2017-12-21T05:07:42.071Z,26.10
2017-12-21T05:10:09.536Z,22.20
2017-12-21T05:12:36.992Z,17.13
2017-12-21T05:15:04.463Z,35.27
2017-12-21T05:17:31.915Z,16.70
2017-12-21T05:19:59.387Z,18.83
2017-12-21T05:22:26.843Z,19.70
2017-12-21T05:24:54.307Z,16.70
2017-12-21T05:27:21.761Z,19.33
2017-12-21T05:29:49.228Z,20.60
2017-12-21T05:32:16.678Z,20.03
2017-12-21T05:34:44.135Z,21.60
2017-12-21T05:37:11.616Z,21.40
2017-12-21T05:39:39.267Z,20.70
2017-12-21T05:42:06.723Z,19.63
2017-12-21T05:44:34.193Z,19.53
2017-12-21T05:47:01.664Z,17.43
2017-12-21T05:49:29.469Z,23.07
2017-12-21T05:51:57.060Z,18.17
2017-12-21T05:54:24.554Z,16.70
2017-12-21T05:56:52.196Z,19.80
2017-12-21T05:59:19.660Z,22.00
2017-12-21T06:01:47.317Z,19.20
2017-12-21T06:04:14.787Z,20.77
2017-12-21T06:06:42.246Z,16.07
2017-12-21T06:09:09.718Z,18.30
2017-12-21T06:11:37.181Z,19.30
2017-12-21T06:14:04.659Z,19.83
2017-12-21T06:16:32.340Z,18.13
2017-12-21T06:18:59.778Z,15.53
2017-12-21T06:21:27.251Z,18.33
2017-12-21T06:23:54.824Z,15.67
2017-12-21T06:26:22.326Z,18.30
2017-12-21T06:28:49.764Z,19.70
2017-12-21T06:31:17.223Z,16.87
2017-12-21T06:33:44.711Z,16.70
2017-12-21T06:36:12.164Z,15.63
2017-12-21T06:38:39.625Z,18.10
2017-12-21T06:41:07.072Z,17.50
2017-12-21T06:43:34.552Z,18.73
2017-12-21T06:46:02.008Z,14.47
2017-12-21T06:48:29.487Z,17.40
2017-12-21T06:50:56.945Z,16.93
2017-12-21T06:53:24.393Z,19.23
2017-12-21T06:55:51.859Z,17.37
2017-12-21T06:58:19.312Z,17.33
2017-12-21T07:00:46.802Z,17.57
2017-12-21T07:03:14.260Z,14.87
2017-12-21T07:05:41.706Z,12.10
2017-12-21T07:08:09.163Z,15.47
2017-12-21T07:10:36.617Z,16.60
2017-12-21T07:13:04.084Z,16.93
2017-12-21T07:15:31.530Z,14.47
2017-12-21T07:17:59.011Z,17.87
2017-12-21T07:20:26.467Z,16.83
2017-12-21T07:22:53.924Z,11.47
2017-12-21T07:25:21.419Z,14.70
2017-12-21T07:27:48.875Z,15.30
2017-12-21T07:30:16.335Z,12.57
2017-12-21T07:32:43.788Z,11.67
2017-12-21T07:35:11.282Z,20.23
2017-12-21T07:37:38.736Z,10.87
2017-12-21T07:40:06.198Z,15.70
2017-12-21T07:42:33.675Z,10.47
2017-12-21T07:45:01.166Z,12.70
2017-12-21T07:47:28.635Z,12.47
2017-12-21T07:49:56.079Z,10.63
2017-12-21T07:52:23.533Z,13.67
2017-12-21T07:54:50.995Z,10.10
2017-12-21T07:57:18.455Z,13.50
2017-12-21T07:59:45.945Z,11.83
2017-12-21T08:02:13.396Z,9.23
2017-12-21T08:04:40.845Z,10.07
2017-12-21T08:07:08.308Z,10.77
2017-12-21T08:09:35.768Z,11.80
2017-12-21T08:12:03.225Z,8.53
2017-12-21T08:14:30.672Z,10.20
2017-12-21T08:16:58.169Z,8.93
2017-12-21T08:19:25.611Z,5.77
2017-12-21T08:21:53.054Z,6.37
2017-12-21T08:24:20.523Z,7.00
2017-12-21T08:26:48.015Z,4.07
2017-12-21T08:29:15.490Z,6.67
2017-12-21T08:31:42.943Z,3.27
2017-12-21T08:34:10.399Z,5.40
2017-12-21T08:36:37.841Z,3.37
2017-12-21T08:39:05.300Z,7.07
2017-12-21T08:41:32.764Z,4.07
2017-12-21T08:44:00.499Z,2.87
2017-12-21T08:46:27.929Z,3.00
2017-12-21T08:48:55.384Z,3.13
2017-12-21T08:51:22.839Z,3.63
2017-12-21T08:53:50.295Z,2.10
2017-12-21T08:56:17.807Z,2.70
2017-12-21T08:58:45.260Z,2.47
2017-12-21T09:01:12.709Z,2.60
2017-12-21T09:03:40.217Z,2.80
2017-12-21T09:06:07.667Z,2.10
2017-12-21T09:08:35.129Z,1.93
2017-12-21T09:11:02.571Z,2.00
2017-12-21T09:13:30.023Z,5.67
2017-12-21T09:15:57.473Z,10.33
2017-12-21T09:18:24.936Z,2.83
2017-12-21T09:20:52.378Z,2.40
2017-12-21T09:23:19.907Z,7.33
2017-12-21T09:25:47.304Z,2.17
2017-12-21T09:28:14.755Z,2.00
2017-12-21T09:30:42.198Z,2.30
2017-12-21T09:33:09.669Z,3.03
2017-12-21T09:35:37.103Z,1.70
2017-12-21T09:38:04.562Z,1.80
2017-12-21T09:40:32.249Z,3.83
2017-12-21T09:42:59.715Z,2.10
2017-12-21T09:45:27.217Z,3.43
2017-12-21T09:47:54.702Z,3.20
2017-12-21T09:50:22.160Z,3.53
2017-12-21T09:52:49.644Z,2.60
2017-12-21T09:55:17.119Z,2.90
2017-12-21T09:57:44.619Z,1.87
2017-12-21T10:00:12.065Z,6.53
2017-12-21T10:02:39.541Z,1.90
2017-12-21T10:05:06.995Z,2.50
2017-12-21T10:07:34.447Z,3.00
2017-12-21T10:10:01.953Z,2.53
2017-12-21T10:12:29.387Z,3.57
2017-12-21T10:14:56.831Z,1.97
2017-12-21T10:17:24.502Z,2.43
2017-12-21T10:19:51.952Z,1.70
2017-12-21T10:22:19.392Z,4.43
2017-12-21T10:24:46.857Z,2.60
2017-12-21T10:27:14.329Z,2.67
2017-12-21T10:29:41.803Z,4.80
2017-12-21T10:32:09.238Z,2.70
2017-12-21T10:34:36.686Z,2.60
2017-12-21T10:37:04.184Z,1.87
2017-12-21T10:39:31.635Z,3.10
2017-12-21T10:41:59.075Z,6.93
2017-12-21T10:44:26.542Z,4.67
2017-12-21T10:46:53.983Z,4.20
2017-12-21T10:49:21.439Z,3.00
2017-12-21T10:51:48.895Z,2.37
2017-12-21T10:54:16.343Z,1.80
2017-12-21T10:56:43.811Z,1.90
2017-12-21T10:59:11.251Z,2.00
2017-12-21T11:01:38.894Z,1.87
2017-12-21T11:04:06.339Z,1.70
2017-12-21T11:06:33.829Z,1.67
2017-12-21T11:09:01.335Z,1.63
2017-12-21T11:11:28.784Z,2.37
2017-12-21T11:13:56.240Z,1.70
2017-12-21T11:16:23.954Z,1.80
2017-12-21T11:18:51.399Z,2.20
2017-12-21T11:21:18.843Z,5.17
2017-12-21T11:23:46.295Z,4.27
2017-12-21T11:26:13.745Z,4.93
2017-12-21T11:28:41.227Z,5.23
2017-12-21T11:31:08.670Z,3.03
2017-12-21T11:33:36.116Z,1.77
2017-12-21T11:36:03.904Z,2.53
2017-12-21T11:38:31.352Z,4.23
2017-12-21T11:40:58.793Z,4.03
2017-12-21T11:43:26.275Z,4.13
2017-12-21T11:45:53.731Z,3.67
2017-12-21T11:48:21.179Z,3.33
2017-12-21T11:50:48.643Z,2.80
2017-12-21T11:53:16.095Z,2.97
2017-12-21T11:55:43.567Z,2.30
2017-12-21T11:58:11.016Z,8.77
2017-12-21T12:00:38.462Z,6.27
2017-12-21T12:03:05.937Z,3.50
2017-12-21T12:05:33.379Z,5.60
2017-12-21T12:08:00.826Z,3.13
2017-12-21T12:10:28.305Z,2.27
2017-12-21T12:12:55.787Z,3.70
2017-12-21T12:15:23.236Z,2.77
2017-12-21T12:17:50.695Z,4.50
2017-12-21T12:20:18.142Z,3.33
2017-12-21T12:22:45.633Z,5.53
2017-12-21T12:25:13.100Z,2.23
2017-12-21T12:27:40.548Z,5.80
2017-12-21T12:30:07.999Z,4.53
2017-12-21T12:32:36.016Z,2.57
2017-12-21T12:35:03.501Z,9.67
2017-12-21T12:37:30.961Z,11.23
2017-12-21T12:39:58.412Z,3.77
2017-12-21T12:42:25.895Z,11.10
2017-12-21T12:44:53.345Z,13.53
2017-12-21T12:47:20.787Z,8.00
2017-12-21T12:49:48.256Z,4.47
2017-12-21T12:52:15.705Z,8.13
2017-12-21T12:54:43.147Z,5.50
2017-12-21T12:57:10.606Z,6.10
2017-12-21T12:59:38.052Z,2.27
2017-12-21T13:02:05.520Z,2.63
2017-12-21T13:04:32.956Z,3.13
2017-12-21T13:07:00.431Z,3.93
2017-12-21T13:09:27.875Z,6.67
2017-12-21T13:11:55.325Z,7.03
2017-12-21T13:14:22.824Z,6.10
2017-12-21T13:16:50.272Z,5.90
2017-12-21T13:19:17.727Z,5.93
2017-12-21T13:21:45.167Z,6.33
2017-12-21T13:24:12.637Z,3.70
2017-12-21T13:26:40.109Z,3.57
2017-12-21T13:29:07.591Z,4.83
2017-12-21T13:31:35.041Z,3.00
2017-12-21T13:34:02.515Z,4.97
2017-12-21T13:36:29.976Z,11.90
2017-12-21T13:38:57.431Z,3.80
2017-12-21T13:41:24.868Z,5.70
2017-12-21T13:43:52.335Z,2.93
2017-12-21T13:46:19.780Z,8.23
2017-12-21T13:48:47.233Z,1.80
2017-12-21T13:51:14.691Z,3.77
2017-12-21T13:53:42.189Z,2.80
2017-12-21T13:56:09.657Z,3.10
2017-12-21T13:58:38.086Z,10.23
2017-12-21T14:01:05.559Z,7.33
2017-12-21T14:03:33.033Z,3.83
2017-12-21T14:06:00.492Z,5.87
2017-12-21T14:08:27.937Z,3.70
2017-12-21T14:10:55.392Z,2.17
2017-12-21T14:13:22.848Z,2.50
2017-12-21T14:15:50.316Z,4.87
2017-12-21T14:18:17.768Z,4.07
2017-12-21T14:20:46.067Z,5.10
2017-12-21T14:23:13.521Z,4.20
2017-12-21T14:25:40.978Z,2.60
2017-12-21T14:28:08.418Z,3.27
2017-12-21T14:30:35.896Z,5.57
2017-12-21T14:33:03.341Z,4.50
2017-12-21T14:35:30.795Z,3.93
2017-12-21T14:37:58.252Z,7.77
2017-12-21T14:40:25.695Z,5.47
2017-12-21T14:42:53.187Z,2.53
2017-12-21T14:45:20.626Z,2.87
2017-12-21T14:47:48.301Z,2.33
2017-12-21T14:50:15.757Z,8.00
2017-12-21T14:52:43.200Z,5.47
2017-12-21T14:55:10.654Z,4.60
2017-12-21T14:57:38.094Z,3.57
2017-12-21T15:00:05.697Z,4.30
2017-12-21T15:02:33.134Z,5.80
2017-12-21T15:05:00.587Z,8.67
2017-12-21T15:07:28.047Z,8.27
2017-12-21T15:09:55.491Z,12.57
2017-12-21T15:12:22.970Z,8.53
2017-12-21T15:14:50.427Z,7.97
2017-12-21T15:17:17.924Z,7.03
2017-12-21T15:19:45.379Z,8.23
2017-12-21T15:22:12.816Z,8.80
2017-12-21T15:24:40.290Z,7.73
2017-12-21T15:27:07.730Z,8.77
2017-12-21T15:29:35.356Z,8.40
2017-12-21T15:32:02.804Z,10.00
2017-12-21T15:34:30.244Z,5.90
2017-12-21T15:36:57.800Z,6.47
2017-12-21T15:39:25.279Z,6.93
2017-12-21T15:41:52.944Z,11.03
2017-12-21T15:44:20.431Z,6.47
2017-12-21T15:46:47.879Z,7.03
2017-12-21T15:49:15.335Z,7.17
2017-12-21T15:51:42.792Z,6.30
2017-12-21T15:54:10.279Z,6.17
2017-12-21T15:56:37.728Z,4.30
2017-12-21T15:59:05.176Z,6.67
2017-12-21T16:01:32.646Z,3.80
2017-12-21T16:04:00.095Z,9.90
2017-12-21T16:06:27.554Z,3.13
2017-12-21T16:08:55.240Z,5.33
2017-12-21T16:11:22.704Z,4.20
2017-12-21T16:13:50.150Z,5.60
2017-12-21T16:16:17.607Z,6.13
2017-12-21T16:18:45.043Z,7.53
2017-12-21T16:21:12.487Z,5.80
2017-12-21T16:23:39.952Z,5.60
2017-12-21T16:26:07.401Z,4.40
2017-12-21T16:28:34.892Z,6.43
2017-12-21T16:31:02.338Z,4.03
2017-12-21T16:33:29.784Z,4.50
2017-12-21T16:35:57.253Z,4.17
2017-12-21T16:38:24.717Z,4.60
2017-12-21T16:40:52.235Z,6.33
2017-12-21T16:43:19.683Z,4.27
2017-12-21T16:45:47.118Z,8.23
2017-12-21T16:48:14.585Z,7.13
2017-12-21T16:50:42.032Z,7.27
2017-12-21T16:53:09.685Z,4.30
2017-12-21T16:55:37.127Z,7.63
2017-12-21T16:58:04.558Z,6.73
2017-12-21T17:00:32.024Z,4.10
2017-12-21T17:02:59.458Z,5.53
2017-12-21T17:05:26.924Z,5.73
2017-12-21T17:07:54.376Z,4.97
2017-12-21T17:10:21.839Z,4.90
2017-12-21T17:12:49.309Z,5.17
2017-12-21T17:15:16.986Z,6.33
2017-12-21T17:17:44.478Z,4.03
2017-12-21T17:20:11.934Z,5.70
2017-12-21T17:22:39.398Z,5.87
2017-12-21T17:25:06.845Z,9.10
2017-12-21T17:27:34.305Z,7.17
2017-12-21T17:30:01.744Z,4.50
2017-12-21T17:32:29.225Z,11.20
2017-12-21T17:34:56.675Z,7.50
2017-12-21T17:37:24.113Z,7.63
2017-12-21T17:39:51.563Z,6.57
2017-12-21T17:42:19.015Z,3.80
2017-12-21T17:44:46.499Z,7.43
2017-12-21T17:47:13.947Z,5.63
2017-12-21T17:49:41.387Z,5.63
2017-12-21T17:52:08.843Z,5.00
2017-12-21T17:54:36.295Z,4.63
2017-12-21T17:57:03.980Z,6.17
2017-12-21T17:59:32.594Z,4.53
2017-12-21T18:02:00.043Z,4.50
2017-12-21T18:04:27.499Z,4.90
2017-12-21T18:06:54.942Z,5.43
2017-12-21T18:09:22.400Z,5.63
2017-12-21T18:11:49.849Z,6.23
2017-12-21T18:14:17.497Z,6.87
2017-12-21T18:16:44.940Z,4.80
2017-12-21T18:19:12.377Z,6.60
2017-12-21T18:21:39.843Z,6.97
2017-12-21T18:24:07.283Z,5.40
2017-12-21T18:26:34.730Z,6.27
2017-12-21T18:29:02.175Z,7.80
2017-12-21T18:31:29.663Z,6.77
2017-12-21T18:33:57.103Z,5.27
2017-12-21T18:36:24.553Z,6.70
2017-12-21T18:38:52.023Z,7.00
2017-12-21T18:41:19.467Z,7.13
2017-12-21T18:43:47.122Z,5.83
2017-12-21T18:46:14.555Z,5.30
2017-12-21T18:48:42.008Z,7.53
2017-12-21T18:51:09.478Z,4.57
2017-12-21T18:53:36.936Z,4.93
2017-12-21T18:56:04.391Z,7.37
2017-12-21T18:58:31.847Z,8.33
2017-12-21T19:00:59.322Z,14.53
2017-12-21T19:03:26.759Z,6.40
2017-12-21T19:05:54.217Z,6.00
2017-12-21T19:08:21.668Z,7.43
2017-12-21T19:10:49.131Z,5.40
2017-12-21T19:13:16.580Z,8.40
2017-12-21T19:15:44.085Z,9.10
2017-12-21T19:18:11.532Z,13.67
2017-12-21T19:20:38.971Z,6.67
2017-12-21T19:23:06.447Z,10.17
2017-12-21T19:25:33.901Z,8.53
2017-12-21T19:28:01.943Z,9.50
2017-12-21T19:30:29.408Z,9.70
2017-12-21T19:32:56.860Z,7.30
2017-12-21T19:35:24.321Z,10.93
2017-12-21T19:37:51.780Z,13.23
2017-12-21T19:40:19.283Z,10.07
2017-12-21T19:42:46.731Z,9.30
2017-12-21T19:45:14.179Z,13.47
2017-12-21T19:47:41.650Z,10.60
2017-12-21T19:50:09.132Z,10.93
2017-12-21T19:52:36.577Z,8.60
2017-12-21T19:55:04.027Z,8.83
2017-12-21T19:57:31.487Z,12.87
2017-12-21T19:59:58.939Z,11.90
2017-12-21T20:02:26.461Z,10.00
2017-12-21T20:04:53.911Z,12.53
2017-12-21T20:07:21.581Z,13.13
2017-12-21T20:09:49.043Z,13.70
2017-12-21T20:12:16.504Z,12.77
2017-12-21T20:14:44.000Z,12.00
2017-12-21T20:17:11.463Z,13.20
2017-12-21T20:19:38.922Z,16.40
2017-12-21T20:22:06.394Z,15.20
2017-12-21T20:24:33.877Z,17.50
2017-12-21T20:27:01.351Z,18.20
2017-12-21T20:29:28.799Z,13.77
2017-12-21T20:31:56.277Z,17.97
2017-12-21T20:34:23.737Z,15.27
2017-12-21T20:36:51.187Z,13.27
2017-12-21T20:39:18.654Z,13.40
2017-12-21T20:41:46.099Z,12.30
2017-12-21T20:44:13.559Z,11.87
2017-12-21T20:46:41.014Z,15.27
2017-12-21T20:49:08.488Z,12.23
2017-12-21T20:51:35.936Z,12.97
2017-12-21T20:54:03.435Z,12.53
2017-12-21T20:56:30.899Z,14.43
2017-12-21T20:58:58.366Z,12.07
2017-12-21T21:01:25.842Z,16.00
2017-12-21T21:03:53.286Z,14.30
2017-12-21T21:06:20.750Z,11.13
2017-12-21T21:08:48.212Z,12.13
2017-12-21T21:11:15.664Z,13.30
2017-12-21T21:13:43.145Z,12.57
2017-12-21T21:16:10.590Z,13.63
2017-12-21T21:18:38.032Z,12.47
2017-12-21T21:21:05.501Z,14.43
2017-12-21T21:23:32.949Z,10.90
2017-12-21T21:26:00.627Z,11.60
2017-12-21T21:28:28.082Z,8.40
2017-12-21T21:30:55.526Z,10.77
2017-12-21T21:33:22.991Z,11.33
2017-12-21T21:35:50.453Z,10.00
2017-12-21T21:38:17.936Z,7.20
2017-12-21T21:40:45.389Z,8.70
2017-12-21T21:43:12.841Z,9.47
2017-12-21T21:45:40.327Z,8.23
2017-12-21T21:48:07.774Z,6.47
2017-12-21T21:50:35.212Z,8.50
2017-12-21T21:53:02.707Z,8.23
2017-12-21T21:55:30.151Z,9.30
2017-12-21T21:57:57.613Z,9.67
2017-12-21T22:00:25.088Z,8.23
2017-12-21T22:02:52.526Z,9.47
2017-12-21T22:05:19.984Z,9.83
2017-12-21T22:07:47.474Z,9.70
2017-12-21T22:10:14.906Z,8.70
2017-12-21T22:12:42.354Z,9.90
2017-12-21T22:15:09.855Z,11.17
2017-12-21T22:17:37.299Z,12.90
2017-12-21T22:20:04.782Z,9.13
2017-12-21T22:22:32.291Z,11.57
2017-12-21T22:24:59.747Z,9.57
2017-12-21T22:27:27.200Z,9.30
2017-12-21T22:29:54.659Z,11.30
2017-12-21T22:32:22.113Z,9.87
2017-12-21T22:34:49.606Z,9.30
2017-12-21T22:37:17.053Z,8.80
2017-12-21T22:39:44.516Z,8.93
2017-12-21T22:42:12.179Z,10.73
2017-12-21T22:44:39.631Z,10.00
2017-12-21T22:47:07.083Z,8.90
2017-12-21T22:49:34.587Z,12.20
2017-12-21T22:52:02.043Z,7.97
2017-12-21T22:54:29.491Z,9.50
2017-12-21T22:56:56.988Z,9.73
2017-12-21T22:59:24.439Z,9.63
2017-12-21T23:01:51.899Z,6.83
2017-12-21T23:04:19.396Z,7.13
2017-12-21T23:06:46.845Z,6.70
2017-12-21T23:09:14.291Z,7.37
2017-12-21T23:11:41.952Z,8.47
2017-12-21T23:14:09.389Z,8.40
2017-12-21T23:16:36.882Z,8.80
2017-12-21T23:19:04.343Z,9.17
2017-12-21T23:21:31.787Z,11.63
2017-12-21T23:23:59.254Z,11.10
2017-12-21T23:26:26.734Z,15.50
2017-12-21T23:28:54.175Z,9.90
2017-12-21T23:31:21.620Z,6.53
2017-12-21T23:33:49.106Z,6.87
2017-12-21T23:36:16.547Z,9.33
2017-12-21T23:38:44.150Z,8.03
2017-12-21T23:41:11.634Z,7.43
2017-12-21T23:43:39.074Z,6.33
2017-12-21T23:46:06.535Z,5.77
2017-12-21T23:48:34.005Z,9.60
2017-12-21T23:51:01.457Z,8.23
2017-12-21T23:53:28.952Z,6.30
2017-12-21T23:55:56.407Z,6.53
2017-12-21T23:58:23.859Z,11.57
